Time;durP1;ratioP1;P1;durP2;ratioP2;P2;SDS_P1;SDS_P2;PMS_P1;PMS_P2;Temp;Humidity;BMP_temperature;BMP_pressure;BME280_temperature;BME280_humidity;BME280_pressure;Samples;Min_cycle;Max_cycle;Signal;HPM_P1;HPM_P2
2023/04/17 00:00:10;;;;;;;;;;;8.10;99.90;;;;;;4960219;28;19930;-85
2023/04/17 00:02:39;;;;;;;;;;;7.90;99.90;;;;;;4960759;28;20445;-85
2023/04/17 00:05:08;;;;;;;;;;;8.00;99.90;;;;;;4960529;28;20351;-86
2023/04/17 00:07:37;;;;;;;;;;;7.10;99.90;;;;;;4976034;28;19930;-85
2023/04/17 00:10:07;;;;;;;;;;;7.90;99.90;;;;;;4976032;28;19933;-85
2023/04/17 00:12:32;;;;;;;;;;;7.90;99.90;;;;;;4976485;28;19926;-85
2023/04/17 00:14:58;;;;;;;;;;;7.90;99.90;;;;;;4960329;28;19934;-85
2023/04/17 00:17:24;;;;;;;;;;;7.90;99.90;;;;;;4976375;28;19958;-85
2023/04/17 00:19:50;;;;;;;;;;;7.90;99.90;;;;;;4976312;28;19930;-85
2023/04/17 00:22:15;;;;;;;;;;;7.90;99.90;;;;;;4975902;28;19926;-85
2023/04/17 00:24:41;;;;;;;;;;;7.90;99.90;;;;;;4975800;28;20069;-85
2023/04/17 00:27:06;;;;;;;;;;;7.90;99.90;;;;;;4976236;28;19933;-84
2023/04/17 00:29:33;;;;;;;;;;;7.90;99.90;;;;;;4959897;28;19996;-85
2023/04/17 00:32:16;;;;;;;;;;;7.90;99.90;;;;;;4975969;28;19926;-86
2023/04/17 00:34:42;;;;;;;;;;;10.10;99.90;;;;;;4975544;28;19926;-85
2023/04/17 00:37:08;;;;;;;;;;;7.90;99.90;;;;;;4975469;28;19926;-85
2023/04/17 00:39:33;;;;;;;;;;;7.90;99.90;;;;;;4976506;28;19930;-85
2023/04/17 00:41:59;;;;;;;;;;;7.80;99.90;;;;;;4959777;28;20263;-84
2023/04/17 00:44:25;;;;;;;;;;;7.80;99.90;;;;;;4975802;28;20016;-85
2023/04/17 00:46:50;;;;;;;;;;;7.70;99.90;;;;;;4975861;28;19926;-85
2023/04/17 00:49:16;;;;;;;;;;;7.70;99.90;;;;;;4975630;28;20365;-84
2023/04/17 00:51:42;;;;;;;;;;;7.80;99.90;;;;;;4977163;28;19926;-85
2023/04/17 00:54:09;;;;;;;;;;;7.80;99.90;;;;;;4974667;28;20221;-85
2023/04/17 00:56:35;;;;;;;;;;;7.70;99.90;;;;;;4959412;28;19973;-85
2023/04/17 00:59:02;;;;;;;;;;;9.30;99.90;;;;;;4959481;28;20021;-85
2023/04/17 01:01:28;;;;;;;;;;;7.80;99.90;;;;;;4975354;28;19926;-85
2023/04/17 01:03:54;;;;;;;;;;;7.80;99.90;;;;;;4975475;28;19981;-85
2023/04/17 01:06:19;;;;;;;;;;;7.80;99.90;;;;;;4975197;28;19938;-85
2023/04/17 01:08:45;;;;;;;;;;;7.80;99.90;;;;;;4975023;28;19926;-85
2023/04/17 01:11:10;;;;;;;;;;;7.80;99.90;;;;;;4975200;28;19926;-85
2023/04/17 01:13:46;;;;;;;;;;;8.30;99.90;;;;;;4975315;28;19981;-85
2023/04/17 01:16:12;;;;;;;;;;;7.80;99.90;;;;;;4959524;28;19970;-85
2023/04/17 01:18:37;;;;;;;;;;;7.80;99.90;;;;;;4959151;28;19934;-85
2023/04/17 01:21:03;;;;;;;;;;;7.80;99.90;;;;;;4975939;28;19926;-85
2023/04/17 01:23:28;;;;;;;;;;;7.80;99.90;;;;;;4958935;28;19930;-85
2023/04/17 01:25:54;;;;;;;;;;;7.80;99.90;;;;;;4975164;28;19926;-85
2023/04/17 01:28:20;;;;;;;;;;;7.70;99.90;;;;;;4975829;28;19982;-85
2023/04/17 01:30:45;;;;;;;;;;;7.70;99.90;;;;;;4974687;28;19927;-85
2023/04/17 01:33:11;;;;;;;;;;;7.70;99.90;;;;;;4974936;28;19930;-86
2023/04/17 01:35:37;;;;;;;;;;;7.90;99.90;;;;;;4974994;28;19933;-85
2023/04/17 01:38:02;;;;;;;;;;;7.70;99.90;;;;;;4959013;28;20271;-86
2023/04/17 01:40:30;;;;;;;;;;;7.70;99.90;;;;;;4975121;28;19933;-84
2023/04/17 01:42:56;;;;;;;;;;;7.70;99.90;;;;;;4975808;28;19926;-85
2023/04/17 01:45:21;;;;;;;;;;;7.70;99.90;;;;;;4974846;28;20441;-85
2023/04/17 01:47:47;;;;;;;;;;;7.70;99.90;;;;;;4958651;28;19981;-87
2023/04/17 01:50:13;;;;;;;;;;;7.70;99.90;;;;;;4973685;28;20009;-84
2023/04/17 01:52:38;;;;;;;;;;;7.70;99.90;;;;;;4974373;28;19950;-85
2023/04/17 01:55:04;;;;;;;;;;;7.60;99.90;;;;;;4974261;28;19926;-85
2023/04/17 01:57:31;;;;;;;;;;;7.60;99.90;;;;;;4975511;28;19926;-85
2023/04/17 01:59:57;;;;;;;;;;;7.60;99.90;;;;;;4975372;28;19926;-85
2023/04/17 02:02:22;;;;;;;;;;;7.60;99.90;;;;;;4974605;28;19934;-85
2023/04/17 02:04:48;;;;;;;;;;;7.60;99.90;;;;;;4974477;28;19926;-85
2023/04/17 02:07:13;;;;;;;;;;;7.70;99.90;;;;;;4974538;28;19926;-85
2023/04/17 02:09:39;;;;;;;;;;;7.70;99.90;;;;;;4974159;28;20406;-85
2023/04/17 02:12:05;;;;;;;;;;;7.70;99.90;;;;;;4975253;28;19926;-85
2023/04/17 02:14:31;;;;;;;;;;;7.70;99.90;;;;;;4974443;28;19926;-84
2023/04/17 02:16:57;;;;;;;;;;;7.60;99.90;;;;;;4958573;28;19926;-84
2023/04/17 02:19:22;;;;;;;;;;;7.50;99.90;;;;;;4974384;28;19948;-84
2023/04/17 02:21:48;;;;;;;;;;;7.50;99.90;;;;;;4974268;28;19927;-85
2023/04/17 02:24:13;;;;;;;;;;;7.50;99.90;;;;;;4974210;28;19926;-85
2023/04/17 02:26:39;;;;;;;;;;;7.40;99.90;;;;;;4975169;28;19937;-85
2023/04/17 02:29:05;;;;;;;;;;;7.50;99.90;;;;;;4974005;28;19981;-85
2023/04/17 02:31:30;;;;;;;;;;;7.40;99.90;;;;;;4958404;28;19927;-85
2023/04/17 02:33:56;;;;;;;;;;;7.40;99.90;;;;;;4958241;28;19930;-85
2023/04/17 02:36:22;;;;;;;;;;;7.40;99.90;;;;;;4973992;28;20302;-85
2023/04/17 02:38:47;;;;;;;;;;;7.40;99.90;;;;;;4974125;28;20037;-85
2023/04/17 02:41:13;;;;;;;;;;;7.40;99.90;;;;;;4974158;28;20259;-84
2023/04/17 02:43:38;;;;;;;;;;;7.40;99.90;;;;;;4974185;28;19926;-85
2023/04/17 02:46:04;;;;;;;;;;;7.40;99.90;;;;;;4974216;28;19926;-85
2023/04/17 02:48:30;;;;;;;;;;;7.40;99.90;;;;;;4974169;28;19926;-84
2023/04/17 02:50:55;;;;;;;;;;;7.40;99.90;;;;;;4973819;28;19992;-85
2023/04/17 02:53:21;;;;;;;;;;;7.40;99.90;;;;;;4973956;28;19930;-84
2023/04/17 02:55:47;;;;;;;;;;;7.40;99.90;;;;;;4957786;28;19933;-85
2023/04/17 02:58:12;;;;;;;;;;;7.30;99.90;;;;;;4974326;28;19981;-84
2023/04/17 03:00:38;;;;;;;;;;;7.40;99.90;;;;;;4975586;28;19926;-85
2023/04/17 03:03:04;;;;;;;;;;;7.40;99.90;;;;;;4977756;28;20453;-85
2023/04/17 03:05:29;;;;;;;;;;;7.40;99.90;;;;;;4977705;28;20000;-85
2023/04/17 03:07:58;;;;;;;;;;;7.40;99.90;;;;;;4977618;28;19926;-84
2023/04/17 03:10:24;;;;;;;;;;;7.30;99.90;;;;;;4961199;28;19926;-85
2023/04/17 03:12:49;;;;;;;;;;;7.30;99.90;;;;;;4977563;28;19937;-85
2023/04/17 03:15:15;;;;;;;;;;;7.30;99.90;;;;;;4977764;28;19926;-85
2023/04/17 03:17:41;;;;;;;;;;;7.30;99.90;;;;;;4961413;28;20291;-85
2023/04/17 03:20:06;;;;;;;;;;;7.30;99.90;;;;;;4977413;28;19976;-85
2023/04/17 03:22:32;;;;;;;;;;;7.30;99.90;;;;;;4977042;28;19933;-84
2023/04/17 03:24:58;;;;;;;;;;;7.30;99.90;;;;;;4977545;28;19949;-85
2023/04/17 03:27:23;;;;;;;;;;;7.30;99.90;;;;;;4977301;28;19927;-84
2023/04/17 03:29:50;;;;;;;;;;;7.30;99.90;;;;;;4977101;28;20017;-85
2023/04/17 03:32:16;;;;;;;;;;;7.30;99.90;;;;;;4977507;28;20090;-84
2023/04/17 03:34:41;;;;;;;;;;;7.30;99.90;;;;;;4961343;28;19926;-84
2023/04/17 03:37:07;;;;;;;;;;;7.20;99.90;;;;;;4961392;28;19949;-85
2023/04/17 03:39:32;;;;;;;;;;;7.20;99.90;;;;;;4992906;28;20028;-85
2023/04/17 03:41:58;;;;;;;;;;;7.20;99.90;;;;;;4976969;28;19934;-85
2023/04/17 03:44:23;;;;;;;;;;;7.20;99.90;;;;;;4960913;28;19926;-85
2023/04/17 03:46:49;;;;;;;;;;;7.20;99.90;;;;;;4977003;28;20029;-84
2023/04/17 03:49:15;;;;;;;;;;;7.20;99.90;;;;;;4976265;28;20309;-85
2023/04/17 03:51:41;;;;;;;;;;;7.20;99.90;;;;;;4977572;28;20266;-84
2023/04/17 03:54:07;;;;;;;;;;;7.20;99.90;;;;;;4960548;28;19926;-85
2023/04/17 03:56:33;;;;;;;;;;;7.20;99.90;;;;;;4960412;28;19937;-85
2023/04/17 03:58:58;;;;;;;;;;;7.20;99.90;;;;;;4976703;28;19926;-85
2023/04/17 04:01:27;;;;;;;;;;;7.20;99.90;;;;;;4960516;28;20017;-85
2023/04/17 04:03:55;;;;;;;;;;;7.20;99.90;;;;;;4976612;28;19966;-85
2023/04/17 04:06:21;;;;;;;;;;;7.10;99.90;;;;;;4976592;28;19926;-86
2023/04/17 04:08:47;;;;;;;;;;;7.20;99.90;;;;;;4976938;28;19934;-85
2023/04/17 04:11:13;;;;;;;;;;;7.20;99.90;;;;;;4976456;28;19926;-84
2023/04/17 04:13:39;;;;;;;;;;;7.20;99.90;;;;;;4959397;28;19953;-85
2023/04/17 04:16:05;;;;;;;;;;;7.20;99.90;;;;;;4960355;28;19926;-85
2023/04/17 04:18:31;;;;;;;;;;;7.20;99.90;;;;;;4961067;28;20016;-85
2023/04/17 04:20:56;;;;;;;;;;;7.10;99.90;;;;;;4977003;28;19922;-85
2023/04/17 04:23:23;;;;;;;;;;;7.10;99.90;;;;;;4976929;28;20359;-85
2023/04/17 04:25:49;;;;;;;;;;;7.10;99.90;;;;;;4976309;28;20334;-85
2023/04/17 04:28:16;;;;;;;;;;;7.10;99.90;;;;;;4960137;28;19926;-85
2023/04/17 04:30:49;;;;;;;;;;;7.20;99.90;;;;;;4975845;28;19933;-85
2023/04/17 04:33:21;;;;;;;;;;;7.10;99.90;;;;;;4960881;28;19926;-85
2023/04/17 04:35:47;;;;;;;;;;;7.10;99.90;;;;;;4976101;28;20029;-86
2023/04/17 04:38:13;;;;;;;;;;;7.20;99.90;;;;;;4975870;28;20361;-85
2023/04/17 04:40:38;;;;;;;;;;;7.20;99.90;;;;;;4976029;28;20286;-85
2023/04/17 04:43:05;;;;;;;;;;;7.10;99.90;;;;;;4975891;28;19926;-86
2023/04/17 04:45:31;;;;;;;;;;;7.20;99.90;;;;;;4975628;28;19927;-85
2023/04/17 04:47:56;;;;;;;;;;;7.10;99.90;;;;;;4976286;28;19948;-85
2023/04/17 04:50:22;;;;;;;;;;;7.10;99.90;;;;;;4975282;28;19926;-84
2023/04/17 04:52:48;;;;;;;;;;;7.10;99.90;;;;;;4976299;28;19968;-86
2023/04/17 04:55:13;;;;;;;;;;;7.00;99.90;;;;;;4975861;28;20377;-85
2023/04/17 04:57:39;;;;;;;;;;;7.10;99.90;;;;;;4959785;28;20366;-85
2023/04/17 05:00:05;;;;;;;;;;;7.00;99.90;;;;;;4975890;28;19926;-85
2023/04/17 05:02:31;;;;;;;;;;;7.00;99.90;;;;;;4975618;28;19933;-84
2023/04/17 05:04:57;;;;;;;;;;;7.10;99.90;;;;;;4975815;28;19926;-84
2023/04/17 05:07:22;;;;;;;;;;;7.10;99.90;;;;;;4975711;28;19926;-85
2023/04/17 05:09:48;;;;;;;;;;;7.10;99.90;;;;;;4975397;28;19926;-85
2023/04/17 05:12:14;;;;;;;;;;;7.10;99.90;;;;;;4975374;28;19949;-85
2023/04/17 05:14:40;;;;;;;;;;;7.10;99.90;;;;;;4975330;28;20371;-85
2023/04/17 05:17:06;;;;;;;;;;;7.10;99.90;;;;;;4975021;28;20363;-85
2023/04/17 05:19:31;;;;;;;;;;;6.30;99.90;;;;;;4975204;28;19926;-85
2023/04/17 05:21:57;;;;;;;;;;;7.10;99.90;;;;;;4976086;28;19930;-85
2023/04/17 05:24:22;;;;;;;;;;;7.10;99.90;;;;;;4975675;28;19980;-85
2023/04/17 05:26:52;;;;;;;;;;;7.10;99.90;;;;;;4958965;28;20259;-87
2023/04/17 05:29:17;;;;;;;;;;;7.10;99.90;;;;;;4958736;28;20020;-86
2023/04/17 05:31:46;;;;;;;;;;;7.20;99.90;;;;;;4974915;28;20009;-86
2023/04/17 05:34:11;;;;;;;;;;;7.20;99.90;;;;;;4974769;28;19934;-84
2023/04/17 05:36:37;;;;;;;;;;;7.20;99.90;;;;;;4975800;28;19930;-87
2023/04/17 05:39:02;;;;;;;;;;;7.20;99.90;;;;;;4975078;28;19933;-85
2023/04/17 05:41:29;;;;;;;;;;;7.20;99.90;;;;;;4959254;28;19977;-87
2023/04/17 05:43:55;;;;;;;;;;;7.30;99.90;;;;;;4975646;28;19948;-86
2023/04/17 05:46:20;;;;;;;;;;;7.30;99.90;;;;;;4959030;28;20418;-87
2023/04/17 05:48:46;;;;;;;;;;;7.30;99.90;;;;;;4975064;28;20422;-86
2023/04/17 05:51:12;;;;;;;;;;;7.40;99.90;;;;;;4973840;28;19926;-88
2023/04/17 05:53:38;;;;;;;;;;;7.40;99.90;;;;;;4974448;28;19981;-87
2023/04/17 05:56:03;;;;;;;;;;;7.40;99.90;;;;;;4957870;28;19922;-85
2023/04/17 05:58:29;;;;;;;;;;;7.50;99.90;;;;;;4974437;28;19933;-85
2023/04/17 06:00:55;;;;;;;;;;;7.50;99.90;;;;;;4973348;28;20335;-88
2023/04/17 06:03:21;;;;;;;;;;;7.50;99.90;;;;;;4974072;28;20280;-88
2023/04/17 06:05:47;;;;;;;;;;;7.50;99.90;;;;;;4974894;28;20020;-86
2023/04/17 06:08:15;;;;;;;;;;;7.50;99.90;;;;;;4974167;28;20310;-86
2023/04/17 06:10:40;;;;;;;;;;;7.50;99.90;;;;;;4973844;28;19922;-86
2023/04/17 06:13:06;;;;;;;;;;;7.50;99.90;;;;;;4975034;28;19922;-86
2023/04/17 06:15:32;;;;;;;;;;;7.60;99.90;;;;;;4989902;28;20020;-87
2023/04/17 06:17:57;;;;;;;;;;;7.60;99.90;;;;;;4973995;28;20310;-86
2023/04/17 06:20:25;;;;;;;;;;;7.70;99.90;;;;;;4973474;28;19922;-87
2023/04/17 06:22:51;;;;;;;;;;;7.70;99.90;;;;;;4973362;28;20366;-87
2023/04/17 06:25:19;;;;;;;;;;;7.80;99.90;;;;;;4973895;28;20005;-86
2023/04/17 06:27:45;;;;;;;;;;;7.70;99.90;;;;;;4958617;28;19989;-86
2023/04/17 06:30:11;;;;;;;;;;;7.80;99.90;;;;;;4973754;28;20358;-86
2023/04/17 06:32:40;;;;;;;;;;;7.80;99.90;;;;;;4957337;28;19922;-86
2023/04/17 06:35:06;;;;;;;;;;;7.80;99.90;;;;;;4958068;28;19957;-86
2023/04/17 06:37:31;;;;;;;;;;;7.90;99.90;;;;;;4977892;28;19929;-85
2023/04/17 06:39:57;;;;;;;;;;;7.90;99.90;;;;;;4977925;28;19969;-86
2023/04/17 06:42:23;;;;;;;;;;;8.00;99.90;;;;;;4977806;28;19988;-86
2023/04/17 06:44:49;;;;;;;;;;;8.00;99.90;;;;;;4977536;28;19933;-86
2023/04/17 06:47:14;;;;;;;;;;;8.10;99.90;;;;;;4977524;28;19977;-87
2023/04/17 06:49:40;;;;;;;;;;;8.20;99.90;;;;;;4977442;28;19922;-86
2023/04/17 06:52:08;;;;;;;;;;;8.20;99.90;;;;;;4977517;28;20008;-86
2023/04/17 06:54:34;;;;;;;;;;;8.30;99.90;;;;;;4977439;28;19926;-85
2023/04/17 06:56:59;;;;;;;;;;;8.30;99.90;;;;;;4976697;28;20017;-87
2023/04/17 06:59:25;;;;;;;;;;;8.40;99.90;;;;;;4993675;28;19922;-86
2023/04/17 07:01:51;;;;;;;;;;;8.50;99.90;;;;;;4961221;28;19992;-85
2023/04/17 07:04:16;;;;;;;;;;;8.60;99.90;;;;;;4978393;28;19922;-86
2023/04/17 07:06:42;;;;;;;;;;;8.70;99.90;;;;;;4978403;28;20335;-86
2023/04/17 07:09:07;;;;;;;;;;;8.80;99.90;;;;;;4978095;28;20016;-86
2023/04/17 07:11:33;;;;;;;;;;;8.80;99.90;;;;;;4978299;28;19937;-86
2023/04/17 07:13:59;;;;;;;;;;;9.00;99.90;;;;;;4977457;28;20317;-85
2023/04/17 07:16:24;;;;;;;;;;;9.00;99.90;;;;;;4977364;28;19961;-86
2023/04/17 07:18:50;;;;;;;;;;;9.00;99.90;;;;;;4978093;28;20027;-85
2023/04/17 07:21:16;;;;;;;;;;;9.20;99.90;;;;;;4977154;28;19921;-87
2023/04/17 07:23:41;;;;;;;;;;;9.30;99.90;;;;;;4976717;28;19922;-86
2023/04/17 07:26:07;;;;;;;;;;;9.30;99.90;;;;;;4976872;28;19922;-86
2023/04/17 07:28:33;;;;;;;;;;;9.40;99.90;;;;;;4961036;28;20021;-86
2023/04/17 07:30:58;;;;;;;;;;;9.40;99.90;;;;;;4976857;28;20346;-85
2023/04/17 07:33:24;;;;;;;;;;;9.50;99.90;;;;;;4976636;28;20322;-85
2023/04/17 07:35:57;;;;;;;;;;;9.50;99.90;;;;;;4977786;28;19969;-85
2023/04/17 07:38:23;;;;;;;;;;;9.50;99.90;;;;;;4977667;28;19945;-84
2023/04/17 07:40:48;;;;;;;;;;;9.40;99.90;;;;;;4977109;28;19926;-86
2023/04/17 07:43:15;;;;;;;;;;;9.40;99.90;;;;;;4977049;28;19922;-85
2023/04/17 07:45:41;;;;;;;;;;;9.60;99.90;;;;;;4977569;28;20442;-85
2023/04/17 07:48:06;;;;;;;;;;;9.70;99.90;;;;;;4976772;28;19973;-85
2023/04/17 07:50:32;;;;;;;;;;;9.70;99.90;;;;;;4976219;28;19925;-87
2023/04/17 07:52:58;;;;;;;;;;;9.80;99.90;;;;;;4976602;28;19929;-86
2023/04/17 07:55:23;;;;;;;;;;;9.80;99.90;;;;;;4976365;28;20378;-86
2023/04/17 07:57:50;;;;;;;;;;;9.90;99.90;;;;;;4993612;28;19932;-86
2023/04/17 08:00:16;;;;;;;;;;;10.00;99.90;;;;;;4976222;28;19922;-87
2023/04/17 08:02:42;;;;;;;;;;;10.20;99.90;;;;;;4960694;28;19929;-86
2023/04/17 08:05:08;;;;;;;;;;;10.40;99.90;;;;;;4976400;28;19922;-87
2023/04/17 08:07:34;;;;;;;;;;;10.50;99.90;;;;;;4976422;28;19958;-86
2023/04/17 08:09:59;;;;;;;;;;;10.50;99.90;;;;;;4959956;28;19926;-86
2023/04/17 08:12:25;;;;;;;;;;;10.50;99.90;;;;;;4960172;28;19925;-86
2023/04/17 08:14:51;;;;;;;;;;;10.60;99.90;;;;;;4976558;28;20400;-86
2023/04/17 08:17:21;;;;;;;;;;;10.60;99.90;;;;;;4976169;28;20008;-86
2023/04/17 08:19:49;;;;;;;;;;;10.70;99.90;;;;;;4976242;28;19930;-85
2023/04/17 08:22:15;;;;;;;;;;;10.80;99.90;;;;;;4976254;28;19922;-86
2023/04/17 08:24:41;;;;;;;;;;;10.80;99.90;;;;;;4959613;28;19929;-86
2023/04/17 08:27:07;;;;;;;;;;;10.80;99.90;;;;;;4959964;28;19973;-86
2023/04/17 08:29:32;;;;;;;;;;;10.80;99.90;;;;;;4959504;28;19969;-87
2023/04/17 08:31:58;;;;;;;;;;;10.90;99.90;;;;;;4975712;28;19922;-87
2023/04/17 08:34:24;;;;;;;;;;;10.80;99.90;;;;;;4959791;28;19922;-86
2023/04/17 08:36:50;;;;;;;;;;;10.90;99.90;;;;;;4959719;28;19930;-86
2023/04/17 08:39:15;;;;;;;;;;;10.80;99.90;;;;;;4975938;28;19929;-86
2023/04/17 08:41:43;;;;;;;;;;;10.90;99.90;;;;;;4975381;28;19928;-86
2023/04/17 08:44:09;;;;;;;;;;;10.90;99.90;;;;;;4975347;28;19926;-87
2023/04/17 08:46:35;;;;;;;;;;;10.90;99.90;;;;;;4975672;28;19925;-86
2023/04/17 08:49:02;;;;;;;;;;;11.00;99.90;;;;;;4975828;28;19949;-87
2023/04/17 08:51:27;;;;;;;;;;;11.00;99.90;;;;;;4975425;28;19928;-88
2023/04/17 08:53:53;;;;;;;;;;;11.10;99.90;;;;;;4975622;28;20265;-88
2023/04/17 08:56:20;;;;;;;;;;;11.20;99.90;;;;;;4958987;28;19930;-86
2023/04/17 08:58:45;;;;;;;;;;;11.20;99.90;;;;;;4975133;28;19922;-87
2023/04/17 09:01:14;;;;;;;;;;;11.30;99.90;;;;;;4976141;28;19929;-86
2023/04/17 09:03:41;;;;;;;;;;;11.40;99.90;;;;;;4975009;28;19926;-86
2023/04/17 09:06:07;;;;;;;;;;;11.40;99.90;;;;;;4959555;28;20262;-86
2023/04/17 09:08:32;;;;;;;;;;;11.50;99.90;;;;;;4974835;28;19933;-86
2023/04/17 09:11:01;;;;;;;;;;;11.60;99.90;;;;;;4958516;28;19922;-86
2023/04/17 09:13:29;;;;;;;;;;;11.60;99.90;;;;;;4975262;28;19937;-86
2023/04/17 09:16:05;;;;;;;;;;;11.80;99.90;;;;;;4975097;28;19922;-86
2023/04/17 09:18:32;;;;;;;;;;;11.90;99.90;;;;;;4975014;28;19938;-87
2023/04/17 09:20:58;;;;;;;;;;;12.00;99.90;;;;;;4959230;28;19922;-86
2023/04/17 09:23:30;;;;;;;;;;;12.20;99.90;;;;;;4974946;28;20005;-86
2023/04/17 09:26:09;;;;;;;;;;;12.30;99.90;;;;;;4958829;28;19922;-85
2023/04/17 09:28:37;;;;;;;;;;;12.50;99.90;;;;;;4974736;28;19922;-87
2023/04/17 09:31:04;;;;;;;;;;;12.70;99.90;;;;;;4958698;28;19989;-87
2023/04/17 09:33:30;;;;;;;;;;;12.90;99.90;;;;;;4958831;28;19930;-87
2023/04/17 09:36:15;;;;;;;;;;;13.00;99.90;;;;;;4975515;28;19922;-87
2023/04/17 09:38:41;;;;;;;;;;;13.10;99.90;;;;;;4958401;28;19976;-85
2023/04/17 09:41:21;;;;;;;;;;;13.30;99.90;;;;;;4958491;28;20270;-86
2023/04/17 09:43:48;;;;;;;;;;;13.60;99.90;;;;;;4958755;28;20401;-86
2023/04/17 09:46:49;;;;;;;;;;;13.80;99.90;;;;;;4958455;28;20270;-87
2023/04/17 09:49:18;;;;;;;;;;;13.90;99.90;;;;;;4961141;28;19928;-87
2023/04/17 09:51:48;;;;;;;;;;;14.00;99.90;;;;;;4974223;28;19922;-87
2023/04/17 09:54:14;;;;;;;;;;;14.00;99.90;;;;;;4975004;28;19926;-86
2023/04/17 09:56:40;;;;;;;;;;;13.90;99.90;;;;;;4974319;28;20351;-86
2023/04/17 09:59:06;;;;;;;;;;;13.90;99.90;;;;;;4958272;28;19964;-85
2023/04/17 10:01:32;;;;;;;;;;;13.90;99.90;;;;;;4974264;28;19976;-87
2023/04/17 10:03:59;;;;;;;;;;;13.90;99.90;;;;;;4958237;28;19922;-87
2023/04/17 10:06:25;;;;;;;;;;;14.00;99.90;;;;;;4958595;28;19941;-87
2023/04/17 10:08:51;;;;;;;;;;;13.90;99.90;;;;;;4974956;28;19966;-87
2023/04/17 10:11:18;;;;;;;;;;;13.90;99.90;;;;;;4957125;28;19965;-88
2023/04/17 10:13:48;;;;;;;;;;;14.00;99.90;;;;;;4974176;28;19926;-87
2023/04/17 10:16:14;;;;;;;;;;;14.10;99.90;;;;;;4958954;28;19926;-88
2023/04/17 10:18:39;;;;;;;;;;;13.80;99.90;;;;;;4991089;28;19933;-86
2023/04/17 10:21:27;;;;;;;;;;;13.70;99.90;;;;;;4958829;28;20245;-86
2023/04/17 10:23:53;;;;;;;;;;;13.80;99.90;;;;;;4974821;28;19922;-86
2023/04/17 10:26:27;;;;;;;;;;;14.00;99.90;;;;;;4973973;28;19934;-86
2023/04/17 10:28:53;;;;;;;;;;;13.40;99.90;;;;;;4974022;28;20001;-86
2023/04/17 10:31:22;;;;;;;;;;;14.10;99.90;;;;;;4973589;28;19961;-86
2023/04/17 10:33:54;;;;;;;;;;;13.90;99.90;;;;;;4973831;28;19926;-86
2023/04/17 10:36:38;;;;;;;;;;;13.80;99.90;;;;;;4974649;28;19926;-85
2023/04/17 10:39:19;;;;;;;;;;;13.80;99.90;;;;;;4974490;28;19975;-85
2023/04/17 10:42:01;;;;;;;;;;;13.90;99.90;;;;;;4957877;28;19922;-86
2023/04/17 10:44:26;;;;;;;;;;;13.90;99.90;;;;;;4958058;28;20386;-84
2023/04/17 10:46:52;;;;;;;;;;;13.90;99.90;;;;;;4974228;28;19977;-85
2023/04/17 10:49:20;;;;;;;;;;;13.90;99.90;;;;;;4974081;28;19922;-85
2023/04/17 10:51:45;;;;;;;;;;;13.90;99.90;;;;;;4974162;28;19945;-86
2023/04/17 10:54:14;;;;;;;;;;;14.00;99.90;;;;;;4957914;28;19922;-86
2023/04/17 10:56:39;;;;;;;;;;;13.90;99.90;;;;;;4974012;28;19982;-84
2023/04/17 10:59:07;;;;;;;;;;;13.90;99.90;;;;;;4974168;28;19984;-86
2023/04/17 11:01:38;;;;;;;;;;;14.10;99.90;;;;;;4957219;28;19926;-87
2023/04/17 11:04:04;;;;;;;;;;;14.10;99.90;;;;;;4957619;28;20358;-86
2023/04/17 11:06:30;;;;;;;;;;;14.10;99.90;;;;;;4957650;28;19926;-86
2023/04/17 11:08:56;;;;;;;;;;;14.10;99.90;;;;;;4957478;28;19922;-86
2023/04/17 11:11:22;;;;;;;;;;;14.10;99.90;;;;;;4973400;28;19926;-85
2023/04/17 11:13:47;;;;;;;;;;;14.20;99.90;;;;;;4973321;28;19929;-85
2023/04/17 11:16:14;;;;;;;;;;;14.30;99.90;;;;;;4973851;28;19922;-86
2023/04/17 11:18:41;;;;;;;;;;;14.40;99.90;;;;;;4957733;28;20024;-87
2023/04/17 11:21:10;;;;;;;;;;;14.50;99.90;;;;;;4973525;28;20331;-85
2023/04/17 11:23:37;;;;;;;;;;;14.50;99.90;;;;;;4960885;28;19922;-87
2023/04/17 11:26:05;;;;;;;;;;;14.60;99.90;;;;;;4961082;28;20235;-86
2023/04/17 11:28:32;;;;;;;;;;;14.70;99.90;;;;;;4960874;28;20314;-87
2023/04/17 11:30:58;;;;;;;;;;;14.90;99.90;;;;;;4960325;28;19936;-86
2023/04/17 11:33:24;;;;;;;;;;;15.40;99.90;;;;;;4976834;28;19922;-87
2023/04/17 11:35:51;;;;;;;;;;;15.00;99.90;;;;;;4977238;28;20313;-86
2023/04/17 11:38:21;;;;;;;;;;;15.00;99.90;;;;;;4976702;28;19922;-88
2023/04/17 11:40:50;;;;;;;;;;;15.00;99.90;;;;;;4960590;28;19922;-88
2023/04/17 11:43:17;;;;;;;;;;;14.90;99.90;;;;;;4976727;28;20068;-87
2023/04/17 11:45:43;;;;;;;;;;;15.20;99.90;;;;;;4977316;28;19993;-86
2023/04/17 11:48:10;;;;;;;;;;;15.00;99.90;;;;;;4960560;28;19977;-87
2023/04/17 11:50:36;;;;;;;;;;;15.00;99.90;;;;;;4976675;28;19937;-87
2023/04/17 11:53:03;;;;;;;;;;;15.10;99.90;;;;;;4976615;28;19922;-87
2023/04/17 11:55:32;;;;;;;;;;;15.20;99.90;;;;;;4976067;28;19922;-88
2023/04/17 11:58:03;;;;;;;;;;;15.30;99.90;;;;;;4992718;28;19944;-88
2023/04/17 12:00:29;;;;;;;;;;;15.20;99.90;;;;;;4976532;28;19922;-87
2023/04/17 12:02:55;;;;;;;;;;;15.40;99.90;;;;;;4960156;28;19980;-87
2023/04/17 12:05:21;;;;;;;;;;;15.30;99.90;;;;;;4976634;28;19926;-88
2023/04/17 12:07:57;;;;;;;;;;;15.20;99.90;;;;;;4977135;28;19973;-87
2023/04/17 12:10:22;;;;;;;;;;;15.20;99.90;;;;;;4976953;28;20234;-87
2023/04/17 12:12:48;;;;;;;;;;;15.20;99.90;;;;;;4976154;28;19928;-87
2023/04/17 12:15:13;;;;;;;;;;;15.50;99.90;;;;;;4959764;28;19922;-87
2023/04/17 12:17:40;;;;;;;;;;;15.50;99.90;;;;;;4976118;28;19930;-87
2023/04/17 12:20:06;;;;;;;;;;;15.40;99.90;;;;;;4976115;28;19922;-87
2023/04/17 12:22:32;;;;;;;;;;;15.30;99.90;;;;;;4959829;28;20274;-87
2023/04/17 12:24:58;;;;;;;;;;;15.40;99.90;;;;;;4976799;28;20022;-88
2023/04/17 12:27:24;;;;;;;;;;;15.50;99.90;;;;;;4975773;28;20437;-88
2023/04/17 12:29:50;;;;;;;;;;;15.60;99.90;;;;;;4959609;28;19969;-87
2023/04/17 12:32:15;;;;;;;;;;;15.70;99.90;;;;;;4976690;28;19961;-87
2023/04/17 12:34:41;;;;;;;;;;;15.60;99.90;;;;;;4959310;28;20089;-86
2023/04/17 12:37:06;;;;;;;;;;;15.50;99.90;;;;;;4975614;28;20379;-88
2023/04/17 12:39:32;;;;;;;;;;;15.40;99.90;;;;;;4960053;28;19926;-87
2023/04/17 12:41:58;;;;;;;;;;;15.40;99.90;;;;;;4977515;28;19922;-88
2023/04/17 12:44:23;;;;;;;;;;;15.50;99.90;;;;;;4975487;28;20025;-88
2023/04/17 12:46:49;;;;;;;;;;;15.60;99.90;;;;;;4959380;28;19925;-88
2023/04/17 12:49:15;;;;;;;;;;;15.50;99.90;;;;;;4975528;28;19929;-86
2023/04/17 12:51:40;;;;;;;;;;;15.50;99.90;;;;;;4974928;28;19922;-87
2023/04/17 12:54:07;;;;;;;;;;;15.60;99.90;;;;;;4975163;28;19929;-87
2023/04/17 12:56:33;;;;;;;;;;;15.70;99.90;;;;;;4974876;28;19929;-86
2023/04/17 12:58:59;;;;;;;;;;;15.70;99.90;;;;;;4959096;28;20339;-86
2023/04/17 13:01:26;;;;;;;;;;;15.90;99.90;;;;;;4959328;28;19929;-87
2023/04/17 13:03:51;;;;;;;;;;;15.90;99.90;;;;;;4975118;28;19922;-87
2023/04/17 13:06:17;;;;;;;;;;;15.80;99.90;;;;;;4975726;28;19929;-86
2023/04/17 13:08:42;;;;;;;;;;;15.90;99.90;;;;;;4974701;28;20012;-87
2023/04/17 13:11:08;;;;;;;;;;;15.90;99.90;;;;;;4974762;28;19922;-88
2023/04/17 13:13:36;;;;;;;;;;;15.90;99.90;;;;;;4959974;28;19937;-88
2023/04/17 13:16:02;;;;;;;;;;;15.90;99.90;;;;;;4958954;28;19922;-87
2023/04/17 13:18:28;;;;;;;;;;;15.90;99.90;;;;;;4975159;28;20424;-87
2023/04/17 13:20:54;;;;;;;;;;;16.00;99.90;;;;;;4958638;28;19973;-87
2023/04/17 13:23:20;;;;;;;;;;;16.10;99.90;;;;;;4958158;28;20335;-87
2023/04/17 13:25:46;;;;;;;;;;;16.00;99.90;;;;;;4958674;28;20012;-87
2023/04/17 13:28:11;;;;;;;;;;;16.00;99.90;;;;;;4974728;28;19973;-86
2023/04/17 13:30:38;;;;;;;;;;;16.10;99.90;;;;;;4975128;28;19922;-87
2023/04/17 13:33:04;;;;;;;;;;;16.30;99.90;;;;;;4958311;28;19922;-86
2023/04/17 13:35:29;;;;;;;;;;;16.10;99.90;;;;;;4958481;28;20020;-87
2023/04/17 13:37:59;;;;;;;;;;;16.10;99.90;;;;;;4975154;28;20017;-87
2023/04/17 13:40:25;;;;;;;;;;;16.20;99.70;;;;;;4975248;28;19929;-87
2023/04/17 13:42:50;;;;;;;;;;;16.10;99.90;;;;;;4959009;28;19921;-87
2023/04/17 13:45:16;;;;;;;;;;;16.00;99.90;;;;;;4974076;28;20013;-87
2023/04/17 13:47:43;;;;;;;;;;;16.00;99.90;;;;;;4958452;28;19969;-87
2023/04/17 13:50:09;;;;;;;;;;;16.10;99.90;;;;;;4957903;28;19922;-87
2023/04/17 13:52:34;;;;;;;;;;;16.00;99.90;;;;;;4958326;28;19922;-87
2023/04/17 13:55:00;;;;;;;;;;;16.20;98.90;;;;;;4990092;28;19968;-87
2023/04/17 13:57:25;;;;;;;;;;;16.10;99.50;;;;;;4990216;28;20008;-87
2023/04/17 13:59:54;;;;;;;;;;;16.10;99.80;;;;;;4974366;28;19930;-86
2023/04/17 14:02:19;;;;;;;;;;;16.20;97.60;;;;;;4974388;28;19926;-87
2023/04/17 14:04:47;;;;;;;;;;;16.10;97.90;;;;;;4974457;28;19922;-87
2023/04/17 14:07:14;;;;;;;;;;;16.10;98.30;;;;;;4974134;28;19922;-88
2023/04/17 14:09:39;;;;;;;;;;;16.10;99.00;;;;;;4957382;28;19933;-87
2023/04/17 14:12:05;;;;;;;;;;;16.00;98.50;;;;;;4973906;28;20004;-87
2023/04/17 14:14:31;;;;;;;;;;;16.00;98.00;;;;;;4974089;28;19922;-87
2023/04/17 14:16:56;;;;;;;;;;;16.10;98.00;;;;;;4958060;28;19969;-87
2023/04/17 14:19:22;;;;;;;;;;;16.10;97.80;;;;;;4958006;28;19922;-87